CA-0701 weather

CLOSED New Richmond Airport
New Richmond, Quebec, Canada

Public forecast

Using degrees Celsius for public forecast. Weather courtesy of forecast.io.

Closest aviation weather report (METAR) to New Richmond Airport

Closest report is Bathurst Airport, 33.4 nm (61.8 km) S. Retrieved 2019/12/15 15:00 UTC (23 minutes ago):

CZBF 151500Z AUTO 23016G28KT 9SM SCT045 OVC055 05/02 A2887 RMK SLP780 DENSITY ALT 200FT

Closest aviation forecast (TAF) to New Richmond Airport

Closest forecast is Bathurst Airport, 33.4 nm (61.8 km) S. Retrieved 2019/12/15 14:39 UTC (44 minutes ago):

TAF CZBF 151338Z 1514/1602 18015G25KT P6SM SCT008 OVC025 TEMPO 1514/1516 5SM -RA BR BKN010 OVC025 BECMG 1514/1516 24020G30KT FM151600 24020G30KT P6SM BKN025 TEMPO 1516/1518 BKN015 FM151800 26020G35KT P6SM BKN030 RMK FCST BASED ON AUTO OBS NXT FCST BY 152000Z